createdAt,value
2023-06-30T00:01:49.937Z,3.22
2023-06-30T00:05:34.824Z,3.00
2023-06-30T00:09:17.694Z,2.95
2023-06-30T00:13:00.413Z,3.20
2023-06-30T00:16:43.175Z,3.13
2023-06-30T00:20:25.861Z,3.10
2023-06-30T00:24:10.046Z,2.97
2023-06-30T00:27:52.797Z,3.17
2023-06-30T00:31:40.763Z,3.70
2023-06-30T00:35:23.569Z,3.85
2023-06-30T00:39:06.334Z,3.30
2023-06-30T00:42:50.440Z,3.78
2023-06-30T00:46:33.276Z,3.55
2023-06-30T00:50:16.205Z,3.97
2023-06-30T00:53:59.102Z,3.50
2023-06-30T00:57:41.768Z,5.20
2023-06-30T01:01:31.390Z,4.07
2023-06-30T01:05:19.722Z,3.85
2023-06-30T01:09:05.134Z,4.03
2023-06-30T01:12:48.136Z,3.85
2023-06-30T01:16:32.661Z,4.40
2023-06-30T01:20:17.088Z,3.50
2023-06-30T01:24:04.059Z,3.90
2023-06-30T01:27:47.066Z,4.63
2023-06-30T01:31:32.730Z,4.25
2023-06-30T01:35:16.841Z,5.00
2023-06-30T01:38:59.513Z,4.93
2023-06-30T01:42:42.394Z,4.55
2023-06-30T01:46:25.160Z,4.97
2023-06-30T01:50:08.607Z,4.30
2023-06-30T01:53:52.733Z,4.53
2023-06-30T01:57:35.594Z,4.10
2023-06-30T02:01:18.330Z,4.20
2023-06-30T02:05:01.080Z,4.35
2023-06-30T02:08:43.881Z,4.50
2023-06-30T02:12:30.894Z,4.85
2023-06-30T02:16:13.680Z,4.80
2023-06-30T02:19:56.397Z,4.40
2023-06-30T02:23:39.065Z,4.80
2023-06-30T02:27:21.834Z,4.38
2023-06-30T02:31:06.186Z,4.80
2023-06-30T02:34:48.920Z,4.93
2023-06-30T02:38:31.758Z,4.70
2023-06-30T02:42:14.477Z,5.40
2023-06-30T02:45:57.205Z,4.68
2023-06-30T02:49:41.304Z,4.95
2023-06-30T02:53:24.012Z,5.07
2023-06-30T02:57:06.985Z,5.30
2023-06-30T03:00:50.418Z,4.88
2023-06-30T03:04:33.309Z,4.88
2023-06-30T03:08:17.425Z,5.53
2023-06-30T03:12:00.125Z,5.10
2023-06-30T03:15:43.147Z,5.03
2023-06-30T03:19:26.172Z,5.40
2023-06-30T03:23:08.856Z,5.45
2023-06-30T03:26:52.915Z,5.68
2023-06-30T03:30:35.628Z,5.60
2023-06-30T03:34:18.359Z,5.88
2023-06-30T03:38:01.045Z,5.93
2023-06-30T03:41:43.812Z,5.60
2023-06-30T03:45:27.890Z,5.43
2023-06-30T03:49:10.605Z,6.30
2023-06-30T03:52:53.292Z,5.97
2023-06-30T03:56:35.944Z,5.80
2023-06-30T04:00:19.386Z,6.55
2023-06-30T04:04:04.048Z,6.22
2023-06-30T04:07:47.148Z,6.88
2023-06-30T04:11:29.904Z,6.97
2023-06-30T04:15:12.758Z,7.13
2023-06-30T04:18:56.104Z,7.68
2023-06-30T04:22:40.636Z,7.70
2023-06-30T04:26:23.341Z,8.57
2023-06-30T04:30:07.587Z,8.40
2023-06-30T04:33:50.612Z,9.23
2023-06-30T04:37:33.421Z,10.13
2023-06-30T04:41:17.794Z,9.90
2023-06-30T04:45:00.508Z,9.73
2023-06-30T04:48:43.304Z,10.93
2023-06-30T04:52:26.024Z,10.30
2023-06-30T04:56:08.737Z,10.30
2023-06-30T04:59:53.135Z,9.73
2023-06-30T05:03:35.926Z,11.23
2023-06-30T05:07:18.778Z,10.43
2023-06-30T05:11:01.819Z,11.38
2023-06-30T05:14:44.626Z,10.80
2023-06-30T05:18:28.726Z,10.73
2023-06-30T05:22:11.433Z,11.77
2023-06-30T05:25:54.166Z,12.30
2023-06-30T05:29:36.910Z,11.52
2023-06-30T05:33:19.635Z,10.57
2023-06-30T05:37:06.673Z,11.02
2023-06-30T05:40:49.495Z,11.18
2023-06-30T05:44:32.331Z,11.18
2023-06-30T05:48:15.118Z,10.75
2023-06-30T05:51:58.837Z,11.95
2023-06-30T05:55:43.145Z,10.52
2023-06-30T05:59:29.084Z,11.77
2023-06-30T06:03:12.015Z,10.65
2023-06-30T06:06:54.928Z,11.30
2023-06-30T06:10:37.674Z,12.02
2023-06-30T06:14:21.986Z,11.15
2023-06-30T06:18:04.962Z,12.00
2023-06-30T06:21:47.752Z,11.52
2023-06-30T06:25:30.461Z,11.18
2023-06-30T06:29:15.591Z,12.40
2023-06-30T06:32:59.758Z,11.80
2023-06-30T06:36:42.523Z,12.75
2023-06-30T06:40:25.466Z,12.63
2023-06-30T06:44:08.311Z,12.45
2023-06-30T06:48:24.048Z,12.60
2023-06-30T06:52:07.343Z,13.02
2023-06-30T06:55:50.770Z,14.32
2023-06-30T06:59:33.456Z,14.02
2023-06-30T07:03:16.580Z,14.85
2023-06-30T07:07:00.736Z,14.00
2023-06-30T07:10:44.692Z,14.43
2023-06-30T07:14:27.406Z,14.48
2023-06-30T07:18:10.272Z,14.30
2023-06-30T07:21:53.305Z,14.30
2023-06-30T07:25:37.388Z,15.65
2023-06-30T07:29:20.066Z,15.02
2023-06-30T07:33:02.797Z,14.48
2023-06-30T07:36:45.528Z,14.98
2023-06-30T07:40:32.668Z,15.68
2023-06-30T07:44:22.446Z,15.77
2023-06-30T07:48:05.947Z,15.52
2023-06-30T07:51:48.850Z,15.95
2023-06-30T07:55:33.757Z,15.20
2023-06-30T07:59:16.523Z,14.95
2023-06-30T08:03:00.837Z,16.20
2023-06-30T08:06:43.690Z,16.38
2023-06-30T08:10:26.424Z,16.77
2023-06-30T08:14:09.144Z,15.73
2023-06-30T08:17:56.888Z,14.25
2023-06-30T08:21:41.605Z,13.32
2023-06-30T08:25:24.987Z,12.32
2023-06-30T08:29:07.711Z,11.73
2023-06-30T08:32:50.497Z,11.38
2023-06-30T08:36:33.956Z,11.63
2023-06-30T08:40:21.351Z,10.98
2023-06-30T08:44:04.740Z,13.23
2023-06-30T08:47:47.651Z,12.18
2023-06-30T08:51:30.937Z,12.38
2023-06-30T08:55:13.832Z,10.07
2023-06-30T08:58:57.907Z,11.73
2023-06-30T09:02:41.223Z,12.20
2023-06-30T09:06:24.184Z,13.30
2023-06-30T09:10:10.280Z,13.52
2023-06-30T09:13:54.239Z,13.93
2023-06-30T09:17:38.377Z,14.60
2023-06-30T09:21:24.269Z,14.77
2023-06-30T09:25:42.029Z,15.48
2023-06-30T09:29:25.828Z,13.50
2023-06-30T09:33:10.370Z,14.95
2023-06-30T09:36:53.990Z,14.32
2023-06-30T09:40:36.736Z,14.45
2023-06-30T09:44:21.579Z,14.90
2023-06-30T09:48:07.797Z,14.02
2023-06-30T09:51:52.180Z,14.23
2023-06-30T09:55:34.871Z,14.85
2023-06-30T09:59:18.238Z,14.65
2023-06-30T10:03:05.220Z,14.90
2023-06-30T10:06:49.133Z,14.98
2023-06-30T10:10:33.285Z,14.00
2023-06-30T10:14:16.915Z,15.63
2023-06-30T10:18:00.577Z,16.30
2023-06-30T10:21:43.347Z,16.25
2023-06-30T10:25:27.285Z,16.25
2023-06-30T10:29:11.464Z,15.82
2023-06-30T10:32:55.363Z,16.17
2023-06-30T10:36:39.097Z,15.10
2023-06-30T10:40:30.325Z,15.40
2023-06-30T10:44:14.442Z,14.85
2023-06-30T10:47:57.388Z,13.73
2023-06-30T10:51:40.220Z,15.82
2023-06-30T10:55:23.976Z,13.15
2023-06-30T10:59:07.046Z,13.25
2023-06-30T11:02:52.009Z,12.65
2023-06-30T11:06:37.493Z,13.05
2023-06-30T11:10:38.885Z,9.60
2023-06-30T11:14:34.278Z,9.32
2023-06-30T11:18:21.952Z,9.05
2023-06-30T11:22:23.412Z,8.90
2023-06-30T11:26:14.257Z,8.45
2023-06-30T11:30:00.360Z,8.43
2023-06-30T11:33:45.471Z,7.75
2023-06-30T11:37:28.651Z,8.20
2023-06-30T11:41:11.447Z,8.55
2023-06-30T11:44:54.159Z,6.90
2023-06-30T11:48:41.204Z,8.43
2023-06-30T11:52:25.274Z,8.98
2023-06-30T11:56:08.091Z,9.52
2023-06-30T11:59:50.798Z,8.50
2023-06-30T12:03:33.621Z,8.43
2023-06-30T12:07:16.974Z,8.40
2023-06-30T12:11:02.499Z,8.38
2023-06-30T12:14:46.011Z,8.98
2023-06-30T12:18:37.882Z,9.25
2023-06-30T12:22:27.105Z,10.10
2023-06-30T12:26:11.593Z,8.80
2023-06-30T12:29:54.586Z,8.98
2023-06-30T12:33:38.381Z,8.60
2023-06-30T12:37:21.298Z,7.90
2023-06-30T12:41:04.498Z,8.93
2023-06-30T12:44:48.595Z,8.30
2023-06-30T12:48:31.835Z,8.55
2023-06-30T12:52:16.754Z,8.82
2023-06-30T12:55:59.560Z,8.63
2023-06-30T12:59:43.869Z,9.07
2023-06-30T13:03:29.401Z,9.10
2023-06-30T13:07:12.187Z,9.07
2023-06-30T13:10:56.222Z,9.30
2023-06-30T13:14:38.953Z,9.18
2023-06-30T13:18:21.728Z,9.35
2023-06-30T13:22:06.082Z,9.23
2023-06-30T13:25:49.627Z,9.73
2023-06-30T13:29:33.037Z,10.95
2023-06-30T13:33:15.883Z,10.35
2023-06-30T13:37:01.672Z,10.20
2023-06-30T13:40:46.102Z,9.95
2023-06-30T13:44:31.040Z,11.30
2023-06-30T13:48:14.037Z,11.18
2023-06-30T13:51:56.915Z,12.40
2023-06-30T13:55:39.691Z,11.65
2023-06-30T13:59:23.836Z,11.85
2023-06-30T14:03:06.656Z,13.80
2023-06-30T14:06:49.438Z,14.00
2023-06-30T14:10:32.458Z,15.10
2023-06-30T14:14:15.391Z,15.50
2023-06-30T14:17:59.578Z,15.35
2023-06-30T14:21:42.647Z,16.08
2023-06-30T14:25:26.232Z,15.57
2023-06-30T14:29:08.911Z,15.55
2023-06-30T14:32:51.686Z,15.48
2023-06-30T14:36:35.859Z,16.25
2023-06-30T14:40:19.483Z,14.45
2023-06-30T14:44:02.213Z,13.63
2023-06-30T14:47:44.951Z,13.50
2023-06-30T14:51:27.686Z,14.30
2023-06-30T14:55:12.084Z,13.23
2023-06-30T14:58:56.087Z,12.75
2023-06-30T15:02:38.971Z,13.85
2023-06-30T15:06:21.668Z,12.70
2023-06-30T15:10:04.915Z,11.75
2023-06-30T15:13:48.960Z,12.20
2023-06-30T15:17:32.057Z,13.73
2023-06-30T15:21:14.838Z,14.45
2023-06-30T15:24:58.070Z,13.32
2023-06-30T15:28:40.765Z,13.35
2023-06-30T15:32:24.977Z,13.15
2023-06-30T15:36:07.666Z,14.45
2023-06-30T15:39:50.398Z,14.85
2023-06-30T15:43:33.153Z,15.18
2023-06-30T15:47:15.927Z,15.15
2023-06-30T15:50:59.986Z,14.85
2023-06-30T15:54:42.714Z,15.85
2023-06-30T15:58:25.595Z,17.23
2023-06-30T16:02:08.336Z,15.48
2023-06-30T16:05:51.316Z,17.80
2023-06-30T16:09:35.413Z,18.52
2023-06-30T16:13:18.156Z,19.20
2023-06-30T16:17:03.104Z,18.30
2023-06-30T16:20:45.949Z,17.77
2023-06-30T16:24:28.615Z,16.42
2023-06-30T16:28:12.757Z,18.33
2023-06-30T16:31:55.656Z,17.50
2023-06-30T16:35:38.424Z,19.20
2023-06-30T16:39:21.097Z,17.15
2023-06-30T16:43:03.785Z,16.20
2023-06-30T16:46:47.873Z,16.17
2023-06-30T16:50:30.637Z,14.93
2023-06-30T16:54:13.326Z,14.57
2023-06-30T16:57:56.048Z,14.52
2023-06-30T17:01:41.761Z,13.63
2023-06-30T17:05:26.289Z,14.10
2023-06-30T17:09:09.046Z,13.88
2023-06-30T17:12:51.710Z,14.93
2023-06-30T17:16:34.522Z,14.27
2023-06-30T17:20:17.416Z,15.52
2023-06-30T17:24:01.591Z,15.68
2023-06-30T17:27:44.376Z,16.25
2023-06-30T17:31:27.240Z,15.50
2023-06-30T17:35:10.531Z,15.88
2023-06-30T17:38:55.087Z,17.92
2023-06-30T17:42:39.162Z,18.50
2023-06-30T17:46:21.924Z,17.83
2023-06-30T17:50:04.992Z,17.48
2023-06-30T17:53:47.721Z,16.95
2023-06-30T17:57:30.428Z,18.83
2023-06-30T18:01:14.521Z,17.55
2023-06-30T18:04:58.015Z,19.70
2023-06-30T18:08:40.881Z,17.45
2023-06-30T18:12:23.585Z,19.08
2023-06-30T18:16:06.644Z,19.05
2023-06-30T18:19:50.972Z,20.33
2023-06-30T18:23:33.800Z,20.55
2023-06-30T18:27:16.492Z,20.95
2023-06-30T18:30:59.165Z,20.55
2023-06-30T18:34:43.521Z,19.48
2023-06-30T18:38:27.576Z,19.30
2023-06-30T18:42:13.694Z,18.13
2023-06-30T18:45:57.042Z,17.98
2023-06-30T18:49:39.747Z,18.63
2023-06-30T18:53:24.248Z,19.20
2023-06-30T18:57:08.725Z,18.02
2023-06-30T19:00:51.438Z,21.05
2023-06-30T19:04:34.248Z,18.85
2023-06-30T19:08:17.064Z,18.85
2023-06-30T19:12:00.035Z,18.70
2023-06-30T19:15:46.246Z,18.65
2023-06-30T19:19:34.825Z,16.85
2023-06-30T19:23:18.757Z,17.23
2023-06-30T19:27:03.363Z,18.90
2023-06-30T19:30:47.765Z,17.58
2023-06-30T19:34:30.489Z,17.98
2023-06-30T19:38:13.303Z,17.40
2023-06-30T19:41:57.566Z,18.80
2023-06-30T19:45:43.168Z,17.48
2023-06-30T19:49:27.246Z,18.27
2023-06-30T19:53:10.022Z,18.90
2023-06-30T19:56:54.436Z,18.02
2023-06-30T20:00:37.221Z,18.25
2023-06-30T20:04:19.988Z,17.77
2023-06-30T20:08:04.384Z,17.98
2023-06-30T20:11:47.127Z,18.02
2023-06-30T20:15:29.918Z,17.38
2023-06-30T20:19:12.599Z,17.70
2023-06-30T20:22:55.398Z,17.00
2023-06-30T20:26:39.674Z,18.25
2023-06-30T20:30:22.525Z,18.30
2023-06-30T20:34:05.257Z,16.30
2023-06-30T20:37:48.075Z,18.13
2023-06-30T20:41:31.075Z,17.92
2023-06-30T20:45:15.286Z,19.05
2023-06-30T20:48:57.996Z,19.67
2023-06-30T20:52:43.144Z,21.27
2023-06-30T20:56:25.827Z,21.35
2023-06-30T21:00:09.998Z,22.60
2023-06-30T21:03:55.080Z,23.37
2023-06-30T21:07:37.846Z,21.60
2023-06-30T21:11:20.512Z,24.92
2023-06-30T21:15:03.590Z,28.33
2023-06-30T21:18:46.254Z,30.20
2023-06-30T21:22:30.346Z,31.83
2023-06-30T21:26:13.345Z,30.87
2023-06-30T21:29:56.097Z,30.13
2023-06-30T21:33:38.854Z,32.08
2023-06-30T21:37:21.617Z,33.78
2023-06-30T21:41:05.805Z,33.05
2023-06-30T21:44:48.517Z,32.50
2023-06-30T21:48:31.352Z,30.42
2023-06-30T21:52:14.096Z,30.40
2023-06-30T21:55:58.085Z,29.93
2023-06-30T21:59:42.252Z,29.13
2023-06-30T22:03:25.250Z,30.10
2023-06-30T22:07:08.035Z,28.42
2023-06-30T22:10:50.929Z,29.05
2023-06-30T22:14:33.762Z,27.00
2023-06-30T22:18:17.882Z,27.43
2023-06-30T22:22:00.674Z,27.35
2023-06-30T22:25:43.428Z,26.85
2023-06-30T22:29:26.223Z,26.98
2023-06-30T22:33:09.231Z,25.95
2023-06-30T22:36:53.322Z,26.90
2023-06-30T22:40:36.000Z,26.83
2023-06-30T22:44:18.725Z,27.15
2023-06-30T22:48:01.485Z,25.10
2023-06-30T22:51:44.241Z,25.75
2023-06-30T22:55:28.352Z,25.40
2023-06-30T22:59:14.124Z,24.83
2023-06-30T23:03:00.523Z,26.70
2023-06-30T23:06:43.602Z,25.80
2023-06-30T23:10:27.794Z,26.27
2023-06-30T23:14:10.558Z,26.48
2023-06-30T23:17:53.461Z,25.48
2023-06-30T23:21:37.211Z,26.85
2023-06-30T23:25:22.049Z,26.27
2023-06-30T23:29:07.129Z,26.27
2023-06-30T23:32:49.894Z,26.80
2023-06-30T23:36:36.365Z,26.02
2023-06-30T23:40:19.236Z,26.27
2023-06-30T23:44:02.441Z,26.33
2023-06-30T23:47:47.156Z,26.87
2023-06-30T23:51:29.926Z,25.67
2023-06-30T23:55:13.016Z,26.58
2023-06-30T23:58:55.816Z,26.00
